sensor_id;sensor_type;location;lat;lon;timestamp;pressure;altitude;pressure_sealevel;temperature;humidity
13968;BME280;39536;52.198;9.920;2023-01-30T00:00:49;100650.25;;;2.64;100.00
13968;BME280;39536;52.198;9.920;2023-01-30T00:03:16;100625.44;;;2.66;100.00
13968;BME280;39536;52.198;9.920;2023-01-30T00:05:42;100610.84;;;2.63;100.00
13968;BME280;39536;52.198;9.920;2023-01-30T00:08:10;100595.41;;;2.77;100.00
13968;BME280;39536;52.198;9.920;2023-01-30T00:10:36;100573.97;;;2.73;100.00
13968;BME280;39536;52.198;9.920;2023-01-30T00:13:03;100565.44;;;2.77;100.00
13968;BME280;39536;52.198;9.920;2023-01-30T00:15:29;100532.84;;;2.75;100.00
13968;BME280;39536;52.198;9.920;2023-01-30T00:17:56;100520.81;;;2.77;100.00
13968;BME280;39536;52.198;9.920;2023-01-30T00:20:22;100519.97;;;2.64;100.00
13968;BME280;39536;52.198;9.920;2023-01-30T00:22:48;100518.28;;;2.66;100.00
13968;BME280;39536;52.198;9.920;2023-01-30T00:25:16;100531.09;;;2.74;100.00
13968;BME280;39536;52.198;9.920;2023-01-30T00:27:43;100536.25;;;2.71;100.00
13968;BME280;39536;52.198;9.920;2023-01-30T00:30:10;100538.84;;;2.75;100.00
13968;BME280;39536;52.198;9.920;2023-01-30T00:32:36;100550.00;;;2.77;100.00
13968;BME280;39536;52.198;9.920;2023-01-30T00:35:04;100567.97;;;2.85;100.00
13968;BME280;39536;52.198;9.920;2023-01-30T00:37:31;100565.41;;;2.91;100.00
13968;BME280;39536;52.198;9.920;2023-01-30T00:39:57;100551.69;;;2.91;100.00
13968;BME280;39536;52.198;9.920;2023-01-30T00:42:25;100571.41;;;2.92;100.00
13968;BME280;39536;52.198;9.920;2023-01-30T00:45:10;100570.56;;;2.91;100.00
13968;BME280;39536;52.198;9.920;2023-01-30T00:47:59;100580.00;;;2.94;100.00
13968;BME280;39536;52.198;9.920;2023-01-30T00:50:26;100547.41;;;2.88;100.00
13968;BME280;39536;52.198;9.920;2023-01-30T00:53:06;100540.53;;;2.98;100.00
13968;BME280;39536;52.198;9.920;2023-01-30T00:55:33;100530.22;;;2.98;100.00
13968;BME280;39536;52.198;9.920;2023-01-30T00:58:01;100500.19;;;3.05;100.00
13968;BME280;39536;52.198;9.920;2023-01-30T01:00:27;100498.47;;;3.05;100.00
13968;BME280;39536;52.198;9.920;2023-01-30T01:02:53;100492.50;;;3.00;100.00
13968;BME280;39536;52.198;9.920;2023-01-30T01:05:20;100489.06;;;3.09;100.00
13968;BME280;39536;52.198;9.920;2023-01-30T01:07:46;100477.88;;;3.05;100.00
13968;BME280;39536;52.198;9.920;2023-01-30T01:10:13;100479.59;;;3.05;100.00
13968;BME280;39536;52.198;9.920;2023-01-30T01:12:40;100461.59;;;3.08;100.00
13968;BME280;39536;52.198;9.920;2023-01-30T01:15:09;100456.44;;;3.08;100.00
13968;BME280;39536;52.198;9.920;2023-01-30T01:17:37;100422.16;;;3.09;100.00
13968;BME280;39536;52.198;9.920;2023-01-30T01:20:04;100428.13;;;3.08;100.00
13968;BME280;39536;52.198;9.920;2023-01-30T01:22:31;100443.56;;;3.11;100.00
13968;BME280;39536;52.198;9.920;2023-01-30T01:24:58;100441.84;;;3.11;100.00
13968;BME280;39536;52.198;9.920;2023-01-30T01:27:24;100431.56;;;3.10;100.00
13968;BME280;39536;52.198;9.920;2023-01-30T01:29:51;100428.13;;;3.11;100.00
13968;BME280;39536;52.198;9.920;2023-01-30T01:32:20;100434.13;;;3.16;100.00
13968;BME280;39536;52.198;9.920;2023-01-30T01:34:46;100427.25;;;3.13;100.00
13968;BME280;39536;52.198;9.920;2023-01-30T01:37:13;100422.97;;;3.17;100.00
13968;BME280;39536;52.198;9.920;2023-01-30T01:39:39;100409.25;;;3.18;100.00
13968;BME280;39536;52.198;9.920;2023-01-30T01:42:34;100410.94;;;3.17;100.00
13968;BME280;39536;52.198;9.920;2023-01-30T01:45:12;100406.69;;;3.15;100.00
13968;BME280;39536;52.198;9.920;2023-01-30T01:47:45;100394.66;;;3.18;100.00
13968;BME280;39536;52.198;9.920;2023-01-30T01:50:15;100357.78;;;3.18;100.00
13968;BME280;39536;52.198;9.920;2023-01-30T01:52:44;100350.88;;;3.21;100.00
13968;BME280;39536;52.198;9.920;2023-01-30T01:55:12;100358.63;;;3.18;100.00
13968;BME280;39536;52.198;9.920;2023-01-30T01:57:42;100333.75;;;3.19;100.00
13968;BME280;39536;52.198;9.920;2023-01-30T02:00:12;100316.59;;;3.21;100.00
13968;BME280;39536;52.198;9.920;2023-01-30T02:02:39;100308.03;;;3.13;100.00
13968;BME280;39536;52.198;9.920;2023-01-30T02:05:08;100300.28;;;3.14;100.00
13968;BME280;39536;52.198;9.920;2023-01-30T02:07:39;100323.44;;;3.14;100.00
13968;BME280;39536;52.198;9.920;2023-01-30T02:10:10;100332.91;;;3.12;100.00
13968;BME280;39536;52.198;9.920;2023-01-30T02:12:38;100315.72;;;3.14;100.00
13968;BME280;39536;52.198;9.920;2023-01-30T02:15:06;100289.13;;;3.20;100.00
13968;BME280;39536;52.198;9.920;2023-01-30T02:17:33;100307.16;;;3.14;100.00
13968;BME280;39536;52.198;9.920;2023-01-30T02:20:03;100296.00;;;3.18;100.00
13968;BME280;39536;52.198;9.920;2023-01-30T02:22:49;100311.44;;;3.21;100.00
13968;BME280;39536;52.198;9.920;2023-01-30T02:25:46;100300.25;;;3.20;100.00
13968;BME280;39536;52.198;9.920;2023-01-30T02:31:17;100301.06;;;3.29;100.00
13968;BME280;39536;52.198;9.920;2023-01-30T02:33:54;100317.34;;;3.34;100.00
13968;BME280;39536;52.198;9.920;2023-01-30T02:36:28;100306.13;;;3.41;100.00
13968;BME280;39536;52.198;9.920;2023-01-30T02:39:05;100288.13;;;3.41;100.00
13968;BME280;39536;52.198;9.920;2023-01-30T02:41:35;100278.66;;;3.43;100.00
13968;BME280;39536;52.198;9.920;2023-01-30T02:44:11;100282.94;;;3.44;100.00
13968;BME280;39536;52.198;9.920;2023-01-30T02:46:51;100274.31;;;3.53;100.00
13968;BME280;39536;52.198;9.920;2023-01-30T02:49:22;100288.00;;;3.56;100.00
13968;BME280;39536;52.198;9.920;2023-01-30T02:51:51;100265.66;;;3.60;100.00
13968;BME280;39536;52.198;9.920;2023-01-30T02:54:19;100259.59;;;3.65;100.00
13968;BME280;39536;52.198;9.920;2023-01-30T02:56:47;100255.28;;;3.66;100.00
13968;BME280;39536;52.198;9.920;2023-01-30T02:59:18;100245.84;;;3.66;100.00
13968;BME280;39536;52.198;9.920;2023-01-30T03:02:04;100238.91;;;3.73;100.00
13968;BME280;39536;52.198;9.920;2023-01-30T03:04:47;100212.31;;;3.69;100.00
13968;BME280;39536;52.198;9.920;2023-01-30T03:07:26;100216.56;;;3.74;100.00
13968;BME280;39536;52.198;9.920;2023-01-30T03:10:01;100223.47;;;3.72;100.00
13968;BME280;39536;52.198;9.920;2023-01-30T03:12:39;100244.09;;;3.72;100.00
13968;BME280;39536;52.198;9.920;2023-01-30T03:15:12;100232.97;;;3.68;100.00
13968;BME280;39536;52.198;9.920;2023-01-30T03:17:45;100237.19;;;3.75;100.00
13968;BME280;39536;52.198;9.920;2023-01-30T03:20:12;100243.16;;;3.80;100.00
13968;BME280;39536;52.198;9.920;2023-01-30T03:22:39;100244.84;;;3.80;100.00
13968;BME280;39536;52.198;9.920;2023-01-30T03:25:06;100222.53;;;3.80;100.00
13968;BME280;39536;52.198;9.920;2023-01-30T03:27:34;100229.41;;;3.78;100.00
13968;BME280;39536;52.198;9.920;2023-01-30T03:30:00;100212.22;;;3.83;100.00
13968;BME280;39536;52.198;9.920;2023-01-30T03:32:27;100230.28;;;3.80;100.00
13968;BME280;39536;52.198;9.920;2023-01-30T03:34:55;100216.44;;;3.87;100.00
13968;BME280;39536;52.198;9.920;2023-01-30T03:37:21;100204.38;;;3.91;100.00
13968;BME280;39536;52.198;9.920;2023-01-30T03:39:47;100207.81;;;3.91;100.00
13968;BME280;39536;52.198;9.920;2023-01-30T03:42:14;100194.94;;;3.91;100.00
13968;BME280;39536;52.198;9.920;2023-01-30T03:44:40;100188.84;;;3.96;100.00
13968;BME280;39536;52.198;9.920;2023-01-30T03:47:07;100171.78;;;3.88;100.00
13968;BME280;39536;52.198;9.920;2023-01-30T03:49:33;100182.06;;;3.88;100.00
13968;BME280;39536;52.198;9.920;2023-01-30T03:52:01;100176.97;;;3.85;100.00
13968;BME280;39536;52.198;9.920;2023-01-30T03:54:27;100169.22;;;3.87;100.00
13968;BME280;39536;52.198;9.920;2023-01-30T03:56:54;100167.50;;;3.86;100.00
13968;BME280;39536;52.198;9.920;2023-01-30T03:59:20;100156.34;;;3.85;100.00
13968;BME280;39536;52.198;9.920;2023-01-30T04:01:46;100172.69;;;3.84;100.00
13968;BME280;39536;52.198;9.920;2023-01-30T04:04:13;100164.06;;;3.85;100.00
13968;BME280;39536;52.198;9.920;2023-01-30T04:06:39;100172.69;;;3.83;100.00
13968;BME280;39536;52.198;9.920;2023-01-30T04:09:07;100160.66;;;3.86;100.00
13968;BME280;39536;52.198;9.920;2023-01-30T04:11:33;100151.09;;;3.94;100.00
13968;BME280;39536;52.198;9.920;2023-01-30T04:14:00;100157.97;;;3.94;100.00
13968;BME280;39536;52.198;9.920;2023-01-30T04:16:27;100145.94;;;3.96;100.00
13968;BME280;39536;52.198;9.920;2023-01-30T04:18:53;100155.31;;;3.99;100.00
13968;BME280;39536;52.198;9.920;2023-01-30T04:21:20;100148.44;;;4.01;100.00
13968;BME280;39536;52.198;9.920;2023-01-30T04:23:46;100141.59;;;4.00;100.00
13968;BME280;39536;52.198;9.920;2023-01-30T04:26:15;100139.88;;;4.00;100.00
13968;BME280;39536;52.198;9.920;2023-01-30T04:28:41;100139.06;;;3.97;100.00
13968;BME280;39536;52.198;9.920;2023-01-30T04:31:09;100133.88;;;3.98;100.00
13968;BME280;39536;52.198;9.920;2023-01-30T04:33:35;100129.53;;;4.02;100.00
13968;BME280;39536;52.198;9.920;2023-01-30T04:36:05;100131.28;;;3.98;100.00
13968;BME280;39536;52.198;9.920;2023-01-30T04:38:33;100117.47;;;4.04;100.00
13968;BME280;39536;52.198;9.920;2023-01-30T04:41:00;100121.72;;;4.08;100.00
13968;BME280;39536;52.198;9.920;2023-01-30T04:43:29;100118.22;;;4.15;100.00
13968;BME280;39536;52.198;9.920;2023-01-30T04:45:56;100126.88;;;4.08;100.00
13968;BME280;39536;52.198;9.920;2023-01-30T04:48:23;100126.91;;;4.06;100.00
13968;BME280;39536;52.198;9.920;2023-01-30T04:50:51;100126.88;;;4.09;100.00
13968;BME280;39536;52.198;9.920;2023-01-30T04:53:18;100113.16;;;4.06;100.00
13968;BME280;39536;52.198;9.920;2023-01-30T04:55:46;100114.81;;;4.10;100.00
13968;BME280;39536;52.198;9.920;2023-01-30T04:58:12;100100.13;;;4.18;100.00
13968;BME280;39536;52.198;9.920;2023-01-30T05:00:40;100123.28;;;4.20;100.00
13968;BME280;39536;52.198;9.920;2023-01-30T05:03:07;100094.00;;;4.25;100.00
13968;BME280;39536;52.198;9.920;2023-01-30T05:05:33;100117.25;;;4.24;100.00
13968;BME280;39536;52.198;9.920;2023-01-30T05:07:59;100128.34;;;4.26;100.00
13968;BME280;39536;52.198;9.920;2023-01-30T05:10:26;100089.69;;;4.26;100.00
13968;BME280;39536;52.198;9.920;2023-01-30T05:12:53;100103.44;;;4.26;100.00
13968;BME280;39536;52.198;9.920;2023-01-30T05:15:19;100076.78;;;4.27;100.00
13968;BME280;39536;52.198;9.920;2023-01-30T05:17:47;100075.88;;;4.30;100.00
13968;BME280;39536;52.198;9.920;2023-01-30T05:20:13;100097.34;;;4.32;100.00
13968;BME280;39536;52.198;9.920;2023-01-30T05:22:40;100081.88;;;4.33;100.00
13968;BME280;39536;52.198;9.920;2023-01-30T05:25:07;100076.72;;;4.33;100.00
13968;BME280;39536;52.198;9.920;2023-01-30T05:27:34;100078.34;;;4.37;100.00
13968;BME280;39536;52.198;9.920;2023-01-30T05:30:00;100064.63;;;4.35;100.00
13968;BME280;39536;52.198;9.920;2023-01-30T05:32:26;100076.72;;;4.33;100.00
13968;BME280;39536;52.198;9.920;2023-01-30T05:34:56;100074.00;;;4.41;100.00
13968;BME280;39536;52.198;9.920;2023-01-30T05:37:22;100077.44;;;4.42;100.00
13968;BME280;39536;52.198;9.920;2023-01-30T05:39:49;100075.69;;;4.44;100.00
13968;BME280;39536;52.198;9.920;2023-01-30T05:42:16;100087.78;;;4.40;100.00
13968;BME280;39536;52.198;9.920;2023-01-30T05:44:42;100066.22;;;4.46;100.00
13968;BME280;39536;52.198;9.920;2023-01-30T05:47:09;100098.81;;;4.48;100.00
13968;BME280;39536;52.198;9.920;2023-01-30T05:49:35;100087.59;;;4.51;100.00
13968;BME280;39536;52.198;9.920;2023-01-30T05:52:03;100102.19;;;4.55;100.00
13968;BME280;39536;52.198;9.920;2023-01-30T05:54:30;100094.50;;;4.50;100.00
13968;BME280;39536;52.198;9.920;2023-01-30T05:56:56;100102.22;;;4.52;100.00
13968;BME280;39536;52.198;9.920;2023-01-30T05:59:22;100096.22;;;4.50;100.00
13968;BME280;39536;52.198;9.920;2023-01-30T06:01:49;100095.38;;;4.48;100.00
13968;BME280;39536;52.198;9.920;2023-01-30T06:04:15;100061.09;;;4.43;100.00
13968;BME280;39536;52.198;9.920;2023-01-30T06:06:42;100103.16;;;4.45;100.00
13968;BME280;39536;52.198;9.920;2023-01-30T06:09:09;100111.72;;;4.48;100.00
13968;BME280;39536;52.198;9.920;2023-01-30T06:11:36;100120.38;;;4.44;100.00
13968;BME280;39536;52.198;9.920;2023-01-30T06:14:02;100107.38;;;4.50;100.00
13968;BME280;39536;52.198;9.920;2023-01-30T06:16:29;100100.59;;;4.45;100.00
13968;BME280;39536;52.198;9.920;2023-01-30T06:18:55;100102.28;;;4.47;100.00
13968;BME280;39536;52.198;9.920;2023-01-30T06:21:22;100099.75;;;4.46;100.00
13968;BME280;39536;52.198;9.920;2023-01-30T06:23:48;100093.75;;;4.44;100.00
13968;BME280;39536;52.198;9.920;2023-01-30T06:26:16;100084.34;;;4.39;100.00
13968;BME280;39536;52.198;9.920;2023-01-30T06:28:42;100104.94;;;4.43;100.00
13968;BME280;39536;52.198;9.920;2023-01-30T06:31:09;100073.03;;;4.50;100.00
13968;BME280;39536;52.198;9.920;2023-01-30T06:33:35;100086.75;;;4.50;100.00
13968;BME280;39536;52.198;9.920;2023-01-30T06:36:02;100078.28;;;4.44;100.00
13968;BME280;39536;52.198;9.920;2023-01-30T06:38:29;100071.38;;;4.46;100.00
13968;BME280;39536;52.198;9.920;2023-01-30T06:40:55;100077.38;;;4.45;100.00
13968;BME280;39536;52.198;9.920;2023-01-30T06:43:23;100091.97;;;4.49;100.00
13968;BME280;39536;52.198;9.920;2023-01-30T06:45:49;100093.50;;;4.59;100.00
13968;BME280;39536;52.198;9.920;2023-01-30T06:48:16;100093.28;;;4.73;100.00
13968;BME280;39536;52.198;9.920;2023-01-30T06:50:44;100113.88;;;4.77;100.00
13968;BME280;39536;52.198;9.920;2023-01-30T06:53:11;100094.88;;;4.81;100.00
13968;BME280;39536;52.198;9.920;2023-01-30T06:55:38;100123.22;;;4.84;100.00
13968;BME280;39536;52.198;9.920;2023-01-30T06:58:06;100137.81;;;4.85;100.00
13968;BME280;39536;52.198;9.920;2023-01-30T07:00:35;100163.66;;;4.84;100.00
13968;BME280;39536;52.198;9.920;2023-01-30T07:03:03;100119.78;;;4.84;100.00
13968;BME280;39536;52.198;9.920;2023-01-30T07:05:30;100122.31;;;4.87;100.00
13968;BME280;39536;52.198;9.920;2023-01-30T07:07:58;100121.47;;;4.85;100.00
13968;BME280;39536;52.198;9.920;2023-01-30T07:10:24;100144.69;;;4.86;100.00
13968;BME280;39536;52.198;9.920;2023-01-30T07:12:51;100120.56;;;4.89;100.00
13968;BME280;39536;52.198;9.920;2023-01-30T07:15:18;100108.53;;;4.88;100.00
13968;BME280;39536;52.198;9.920;2023-01-30T07:17:46;100114.44;;;4.95;100.00
13968;BME280;39536;52.198;9.920;2023-01-30T07:20:12;100105.72;;;5.02;100.00
13968;BME280;39536;52.198;9.920;2023-01-30T07:22:39;100112.53;;;5.06;100.00
13968;BME280;39536;52.198;9.920;2023-01-30T07:25:06;100139.25;;;5.05;100.00
13968;BME280;39536;52.198;9.920;2023-01-30T07:27:33;100123.75;;;5.03;100.00
13968;BME280;39536;52.198;9.920;2023-01-30T07:29:59;100157.31;;;5.05;100.00
13968;BME280;39536;52.198;9.920;2023-01-30T07:32:25;100102.13;;;5.10;100.00
13968;BME280;39536;52.198;9.920;2023-01-30T07:34:53;100121.13;;;5.06;100.00
13968;BME280;39536;52.198;9.920;2023-01-30T07:37:20;100126.22;;;5.11;100.00
13968;BME280;39536;52.198;9.920;2023-01-30T07:39:46;100122.03;;;5.04;100.00
13968;BME280;39536;52.198;9.920;2023-01-30T07:42:13;100102.25;;;5.03;100.00
13968;BME280;39536;52.198;9.920;2023-01-30T07:44:39;100122.81;;;5.09;100.00
13968;BME280;39536;52.198;9.920;2023-01-30T07:47:05;100118.59;;;5.05;100.00
13968;BME280;39536;52.198;9.920;2023-01-30T07:49:32;100118.66;;;5.00;100.00
13968;BME280;39536;52.198;9.920;2023-01-30T07:52:00;100119.53;;;4.99;100.00
13968;BME280;39536;52.198;9.920;2023-01-30T07:54:26;100123.00;;;4.97;100.00
13968;BME280;39536;52.198;9.920;2023-01-30T07:56:53;100115.28;;;4.97;100.00
13968;BME280;39536;52.198;9.920;2023-01-30T07:59:19;100129.06;;;4.94;100.00
13968;BME280;39536;52.198;9.920;2023-01-30T08:01:45;100116.97;;;4.98;100.00
13968;BME280;39536;52.198;9.920;2023-01-30T08:04:12;100107.44;;;5.01;100.00
13968;BME280;39536;52.198;9.920;2023-01-30T08:06:38;100115.19;;;5.01;100.00
13968;BME280;39536;52.198;9.920;2023-01-30T08:09:06;100099.59;;;5.07;100.00
13968;BME280;39536;52.198;9.920;2023-01-30T08:11:33;100154.56;;;5.14;100.00
13968;BME280;39536;52.198;9.920;2023-01-30T08:13:59;100100.38;;;5.13;100.00
13968;BME280;39536;52.198;9.920;2023-01-30T08:16:26;100106.31;;;5.16;100.00
13968;BME280;39536;52.198;9.920;2023-01-30T08:18:52;100102.84;;;5.19;100.00
13968;BME280;39536;52.198;9.920;2023-01-30T08:21:19;100142.38;;;5.22;100.00
13968;BME280;39536;52.198;9.920;2023-01-30T08:23:45;100106.13;;;5.28;100.00
13968;BME280;39536;52.198;9.920;2023-01-30T08:26:13;100102.53;;;5.36;100.00
13968;BME280;39536;52.198;9.920;2023-01-30T08:28:39;100142.09;;;5.38;100.00
13968;BME280;39536;52.198;9.920;2023-01-30T08:31:08;100108.56;;;5.36;100.00
13968;BME280;39536;52.198;9.920;2023-01-30T08:33:35;100126.59;;;5.39;100.00
13968;BME280;39536;52.198;9.920;2023-01-30T08:36:02;100125.72;;;5.40;100.00
13968;BME280;39536;52.198;9.920;2023-01-30T08:38:28;100139.41;;;5.44;100.00
13968;BME280;39536;52.198;9.920;2023-01-30T08:40:55;100148.06;;;5.41;100.00
13968;BME280;39536;52.198;9.920;2023-01-30T08:43:23;100126.56;;;5.41;100.00
13968;BME280;39536;52.198;9.920;2023-01-30T08:45:52;100124.06;;;5.36;100.00
13968;BME280;39536;52.198;9.920;2023-01-30T08:48:19;100154.13;;;5.39;100.00
13968;BME280;39536;52.198;9.920;2023-01-30T08:50:45;100141.16;;;5.42;100.00
13968;BME280;39536;52.198;9.920;2023-01-30T08:53:12;100145.47;;;5.43;100.00
13968;BME280;39536;52.198;9.920;2023-01-30T08:55:38;100130.03;;;5.40;100.00
13968;BME280;39536;52.198;9.920;2023-01-30T08:58:04;100090.41;;;5.41;100.00
13968;BME280;39536;52.198;9.920;2023-01-30T09:00:32;100111.84;;;5.46;100.00
13968;BME280;39536;52.198;9.920;2023-01-30T09:02:59;100133.28;;;5.49;100.00
13968;BME280;39536;52.198;9.920;2023-01-30T09:05:26;100142.72;;;5.50;100.00
13968;BME280;39536;52.198;9.920;2023-01-30T09:07:54;100155.69;;;5.47;100.00
13968;BME280;39536;52.198;9.920;2023-01-30T09:10:20;100141.06;;;5.48;100.00
13968;BME280;39536;52.198;9.920;2023-01-30T09:12:48;100179.84;;;5.46;100.00
13968;BME280;39536;52.198;9.920;2023-01-30T09:15:14;100150.53;;;5.47;100.00
13968;BME280;39536;52.198;9.920;2023-01-30T09:17:42;100116.84;;;5.55;100.00
13968;BME280;39536;52.198;9.920;2023-01-30T09:20:10;100142.63;;;5.58;100.00
13968;BME280;39536;52.198;9.920;2023-01-30T09:22:37;100134.81;;;5.60;100.00
13968;BME280;39536;52.198;9.920;2023-01-30T09:25:04;100148.63;;;5.57;100.00
13968;BME280;39536;52.198;9.920;2023-01-30T09:27:31;100142.50;;;5.63;100.00
13968;BME280;39536;52.198;9.920;2023-01-30T09:29:57;100145.06;;;5.64;100.00
13968;BME280;39536;52.198;9.920;2023-01-30T09:32:24;100138.19;;;5.65;100.00
13968;BME280;39536;52.198;9.920;2023-01-30T09:34:52;100120.09;;;5.63;100.00
13968;BME280;39536;52.198;9.920;2023-01-30T09:37:18;100136.38;;;5.68;100.00
13968;BME280;39536;52.198;9.920;2023-01-30T09:39:44;100150.19;;;5.66;100.00
13968;BME280;39536;52.198;9.920;2023-01-30T09:42:28;100134.56;;;5.73;100.00
13968;BME280;39536;52.198;9.920;2023-01-30T09:45:15;100161.25;;;5.74;100.00
13968;BME280;39536;52.198;9.920;2023-01-30T09:47:57;100142.25;;;5.76;100.00
13968;BME280;39536;52.198;9.920;2023-01-30T09:50:45;100164.75;;;5.71;100.00
13968;BME280;39536;52.198;9.920;2023-01-30T09:53:20;100150.88;;;5.77;100.00
13968;BME280;39536;52.198;9.920;2023-01-30T09:55:50;100138.75;;;5.79;100.00
13968;BME280;39536;52.198;9.920;2023-01-30T09:58:20;100149.84;;;5.84;100.00
13968;BME280;39536;52.198;9.920;2023-01-30T10:00:48;100123.13;;;5.85;100.00
13968;BME280;39536;52.198;9.920;2023-01-30T10:03:18;100108.50;;;5.86;100.00
13968;BME280;39536;52.198;9.920;2023-01-30T10:05:49;100142.09;;;5.84;100.00
13968;BME280;39536;52.198;9.920;2023-01-30T10:08:34;100159.31;;;5.85;100.00
13968;BME280;39536;52.198;9.920;2023-01-30T10:11:10;100128.38;;;5.81;100.00
13968;BME280;39536;52.198;9.920;2023-01-30T10:13:51;100138.78;;;5.77;100.00
13968;BME280;39536;52.198;9.920;2023-01-30T10:16:25;100132.78;;;5.77;100.00
13968;BME280;39536;52.198;9.920;2023-01-30T10:19:17;100131.81;;;5.83;100.00
13968;BME280;39536;52.198;9.920;2023-01-30T10:21:50;100143.16;;;5.74;100.00
13968;BME280;39536;52.198;9.920;2023-01-30T10:24:30;100147.38;;;5.79;100.00
13968;BME280;39536;52.198;9.920;2023-01-30T10:27:01;100133.13;;;5.59;100.00
13968;BME280;39536;52.198;9.920;2023-01-30T10:29:30;100128.91;;;5.53;100.00
13968;BME280;39536;52.198;9.920;2023-01-30T10:32:01;100148.63;;;5.57;100.00
13968;BME280;39536;52.198;9.920;2023-01-30T10:34:34;100137.34;;;5.63;100.00
13968;BME280;39536;52.198;9.920;2023-01-30T10:37:06;100127.75;;;5.69;100.00
13968;BME280;39536;52.198;9.920;2023-01-30T10:39:37;100124.22;;;5.73;100.00
13968;BME280;39536;52.198;9.920;2023-01-30T10:42:09;100130.13;;;5.80;100.00
13968;BME280;39536;52.198;9.920;2023-01-30T10:44:37;100124.84;;;5.85;100.00
13968;BME280;39536;52.198;9.920;2023-01-30T10:50:12;100075.56;;;5.95;100.00
13968;BME280;39536;52.198;9.920;2023-01-30T10:52:43;100128.06;;;5.99;100.00
13968;BME280;39536;52.198;9.920;2023-01-30T10:55:17;100116.81;;;6.00;100.00
13968;BME280;39536;52.198;9.920;2023-01-30T10:57:53;100098.59;;;6.06;100.00
13968;BME280;39536;52.198;9.920;2023-01-30T11:00:27;100082.00;;;6.16;100.00
13968;BME280;39536;52.198;9.920;2023-01-30T11:03:10;100120.00;;;6.13;100.00
13968;BME280;39536;52.198;9.920;2023-01-30T11:05:44;100108.31;;;5.95;100.00
13968;BME280;39536;52.198;9.920;2023-01-30T11:08:22;100130.25;;;5.72;100.00
13968;BME280;39536;52.198;9.920;2023-01-30T11:10:51;100121.78;;;5.66;100.00
13968;BME280;39536;52.198;9.920;2023-01-30T11:13:19;100125.25;;;5.65;100.00
13968;BME280;39536;52.198;9.920;2023-01-30T11:15:49;100111.59;;;5.58;100.00
13968;BME280;39536;52.198;9.920;2023-01-30T11:18:18;100125.56;;;5.48;100.00
13968;BME280;39536;52.198;9.920;2023-01-30T11:20:56;100124.59;;;5.53;100.00
13968;BME280;39536;52.198;9.920;2023-01-30T11:23:30;100101.28;;;5.58;100.00
13968;BME280;39536;52.198;9.920;2023-01-30T11:25:57;100120.09;;;5.65;100.00
13968;BME280;39536;52.198;9.920;2023-01-30T11:28:25;100098.28;;;5.79;100.00
13968;BME280;39536;52.198;9.920;2023-01-30T11:30:53;100082.25;;;6.04;100.00
13968;BME280;39536;52.198;9.920;2023-01-30T11:33:23;100086.69;;;6.39;100.00
13968;BME280;39536;52.198;9.920;2023-01-30T11:36:03;100101.06;;;6.51;100.00
13968;BME280;39536;52.198;9.920;2023-01-30T11:38:33;100085.75;;;6.42;100.00
13968;BME280;39536;52.198;9.920;2023-01-30T11:41:01;100089.56;;;6.25;100.00
13968;BME280;39536;52.198;9.920;2023-01-30T11:43:31;100108.56;;;6.23;100.00
13968;BME280;39536;52.198;9.920;2023-01-30T11:45:59;100088.81;;;6.20;100.00
13968;BME280;39536;52.198;9.920;2023-01-30T11:48:27;100093.22;;;6.17;100.00
13968;BME280;39536;52.198;9.920;2023-01-30T11:50:59;100097.44;;;6.19;100.00
13968;BME280;39536;52.198;9.920;2023-01-30T11:53:33;100075.75;;;6.27;100.00
13968;BME280;39536;52.198;9.920;2023-01-30T11:56:05;100054.94;;;6.33;100.00
13968;BME280;39536;52.198;9.920;2023-01-30T11:58:37;100061.88;;;6.29;100.00
13968;BME280;39536;52.198;9.920;2023-01-30T12:01:04;100046.63;;;6.18;100.00
13968;BME280;39536;52.198;9.920;2023-01-30T12:03:31;100029.91;;;6.33;100.00
13968;BME280;39536;52.198;9.920;2023-01-30T12:05:58;100050.69;;;6.29;100.00
13968;BME280;39536;52.198;9.920;2023-01-30T12:08:27;100070.59;;;6.27;100.00
13968;BME280;39536;52.198;9.920;2023-01-30T12:10:59;100025.72;;;6.28;100.00
13968;BME280;39536;52.198;9.920;2023-01-30T12:13:30;100073.25;;;6.23;100.00
13968;BME280;39536;52.198;9.920;2023-01-30T12:16:11;100057.31;;;6.03;100.00
13968;BME280;39536;52.198;9.920;2023-01-30T12:18:45;100063.50;;;5.96;100.00
13968;BME280;39536;52.198;9.920;2023-01-30T12:21:27;100082.63;;;5.86;100.00
13968;BME280;39536;52.198;9.920;2023-01-30T12:24:04;100080.31;;;5.73;100.00
13968;BME280;39536;52.198;9.920;2023-01-30T12:26:36;100058.22;;;5.57;100.00
13968;BME280;39536;52.198;9.920;2023-01-30T12:29:20;100065.41;;;5.41;100.00
13968;BME280;39536;52.198;9.920;2023-01-30T12:31:51;100049.25;;;5.31;100.00
13968;BME280;39536;52.198;9.920;2023-01-30T12:34:20;100029.88;;;5.09;100.00
13968;BME280;39536;52.198;9.920;2023-01-30T12:36:53;100055.88;;;4.98;100.00
13968;BME280;39536;52.198;9.920;2023-01-30T12:39:34;100078.25;;;4.98;100.00
13968;BME280;39536;52.198;9.920;2023-01-30T12:42:20;100075.38;;;4.63;100.00
13968;BME280;39536;52.198;9.920;2023-01-30T12:45:00;100118.06;;;4.26;100.00
13968;BME280;39536;52.198;9.920;2023-01-30T12:50:32;100107.53;;;4.41;100.00
13968;BME280;39536;52.198;9.920;2023-01-30T12:53:18;100112.53;;;4.52;100.00
13968;BME280;39536;52.198;9.920;2023-01-30T12:55:56;100129.72;;;4.51;100.00
13968;BME280;39536;52.198;9.920;2023-01-30T12:58:31;100141.81;;;4.48;100.00
13968;BME280;39536;52.198;9.920;2023-01-30T13:01:13;100161.91;;;4.23;100.00
13968;BME280;39536;52.198;9.920;2023-01-30T13:03:43;100173.41;;;3.96;100.00
13968;BME280;39536;52.198;9.920;2023-01-30T13:06:23;100144.44;;;3.75;100.00
13968;BME280;39536;52.198;9.920;2023-01-30T13:09:00;100123.13;;;3.61;100.00
13968;BME280;39536;52.198;9.920;2023-01-30T13:11:40;100128.22;;;3.68;100.00